Time;durP1;ratioP1;P1;durP2;ratioP2;P2;SDS_P1;SDS_P2;PMS_P1;PMS_P2;Temp;Humidity;BMP_temperature;BMP_pressure;BME280_temperature;BME280_humidity;BME280_pressure;Samples;Min_cycle;Max_cycle;Signal;HPM_P1;HPM_P2
2023/07/18 00:00:17;;;;;;;2.80;1.40;;;;;;;;;;4974120;29;20015;-81
2023/07/18 00:02:46;;;;;;;4.38;1.25;;;;;;;;;;4943502;29;20043;-82
2023/07/18 00:05:12;;;;;;;4.50;1.40;;;;;;;;;;4975275;29;20061;-82
2023/07/18 00:07:39;;;;;;;4.13;1.33;;;;;;;;;;4958044;29;20031;-82
2023/07/18 00:10:05;;;;;;;5.30;1.42;;;;;;;;;;4957766;29;20035;-83
2023/07/18 00:12:30;;;;;;;3.03;1.30;;;;;;;;;;4954083;29;20036;-83
2023/07/18 00:14:56;;;;;;;2.28;1.27;;;;;;;;;;4944518;29;20403;-84
2023/07/18 00:17:21;;;;;;;4.60;1.23;;;;;;;;;;4913059;29;20039;-83
2023/07/18 00:19:47;;;;;;;2.67;1.13;;;;;;;;;;4921896;29;20027;-84
2023/07/18 00:22:12;;;;;;;6.13;1.40;;;;;;;;;;4954740;29;20031;-83
2023/07/18 00:24:38;;;;;;;3.17;1.30;;;;;;;;;;4937897;29;20471;-84
2023/07/18 00:27:04;;;;;;;2.95;1.05;;;;;;;;;;4954824;28;20039;-83
2023/07/18 00:29:29;;;;;;;5.07;1.10;;;;;;;;;;4955510;29;20082;-84
2023/07/18 00:31:56;;;;;;;3.83;1.10;;;;;;;;;;4955670;29;20051;-84
2023/07/18 00:34:22;;;;;;;3.97;1.67;;;;;;;;;;4938584;29;20483;-80
2023/07/18 00:36:47;;;;;;;4.32;1.50;;;;;;;;;;4947052;28;20042;-82
2023/07/18 00:39:13;;;;;;;3.45;1.40;;;;;;;;;;4963895;29;20551;-81
2023/07/18 00:41:39;;;;;;;2.63;1.05;;;;;;;;;;4945210;29;20490;-83
2023/07/18 00:44:04;;;;;;;2.60;1.20;;;;;;;;;;4938619;29;20491;-82
2023/07/18 00:46:31;;;;;;;3.50;1.33;;;;;;;;;;4954895;29;20509;-84
2023/07/18 00:48:57;;;;;;;5.03;1.40;;;;;;;;;;4905579;29;20038;-83
2023/07/18 00:51:41;;;;;;;3.28;1.35;;;;;;;;;;4938916;29;20090;-83
2023/07/18 00:54:07;;;;;;;3.63;1.20;;;;;;;;;;4920643;29;20407;-83
2023/07/18 00:56:33;;;;;;;3.17;1.30;;;;;;;;;;4936611;29;20032;-84
2023/07/18 00:58:58;;;;;;;3.30;1.35;;;;;;;;;;4920670;29;20086;-83
2023/07/18 01:01:24;;;;;;;4.13;1.23;;;;;;;;;;4936493;29;20384;-83
2023/07/18 01:03:49;;;;;;;6.23;1.50;;;;;;;;;;4953799;29;20510;-82
2023/07/18 01:06:16;;;;;;;2.70;1.15;;;;;;;;;;4922072;29;20038;-83
2023/07/18 01:08:42;;;;;;;2.80;1.30;;;;;;;;;;4908401;29;20031;-83
2023/07/18 01:11:07;;;;;;;4.45;1.50;;;;;;;;;;4939920;29;20483;-84
2023/07/18 01:13:34;;;;;;;4.07;1.77;;;;;;;;;;4957247;29;20024;-82
2023/07/18 01:16:00;;;;;;;3.85;1.13;;;;;;;;;;4924296;29;20035;-84
2023/07/18 01:18:26;;;;;;;3.10;1.30;;;;;;;;;;4939808;29;20031;-84
2023/07/18 01:20:52;;;;;;;3.92;1.25;;;;;;;;;;4957120;29;20035;-84
2023/07/18 01:23:18;;;;;;;3.42;1.27;;;;;;;;;;4958577;29;20053;-83
2023/07/18 01:25:44;;;;;;;5.10;1.80;;;;;;;;;;4968457;29;20027;-84
2023/07/18 01:28:12;;;;;;;3.15;1.20;;;;;;;;;;4931736;29;20039;-84
2023/07/18 01:30:38;;;;;;;4.07;1.15;;;;;;;;;;4917359;29;20051;-84
2023/07/18 01:33:04;;;;;;;2.33;1.13;;;;;;;;;;4949895;29;20035;-84
2023/07/18 01:35:30;;;;;;;4.68;1.27;;;;;;;;;;4967941;29;20031;-83
2023/07/18 01:37:56;;;;;;;4.05;1.70;;;;;;;;;;4952226;29;20448;-83
2023/07/18 01:40:22;;;;;;;5.68;1.60;;;;;;;;;;4940810;29;20031;-81
2023/07/18 01:42:52;;;;;;;3.08;1.48;;;;;;;;;;4940181;29;20080;-83
2023/07/18 01:45:19;;;;;;;3.33;1.42;;;;;;;;;;4956179;29;20047;-83
2023/07/18 01:47:44;;;;;;;2.55;1.25;;;;;;;;;;4939182;29;20483;-84
2023/07/18 01:50:10;;;;;;;3.75;1.50;;;;;;;;;;4956372;29;20027;-82
2023/07/18 01:52:37;;;;;;;5.93;1.40;;;;;;;;;;4923990;29;20027;-83
2023/07/18 01:55:03;;;;;;;3.13;1.30;;;;;;;;;;4939962;29;20479;-84
2023/07/18 01:57:31;;;;;;;5.80;1.50;;;;;;;;;;4940428;29;20081;-82
2023/07/18 02:00:00;;;;;;;6.43;1.48;;;;;;;;;;4924677;29;20053;-82
2023/07/18 02:02:26;;;;;;;;;;;;;;;;;;4972505;29;20066;-82
2023/07/18 02:04:51;;;;;;;4.90;1.38;;;;;;;;;;4975988;28;19929;-82
2023/07/18 02:07:17;;;;;;;4.32;1.35;;;;;;;;;;4949099;29;20050;-83
2023/07/18 02:09:42;;;;;;;4.53;1.42;;;;;;;;;;4955620;29;20035;-83
2023/07/18 02:12:08;;;;;;;3.72;1.30;;;;;;;;;;4938221;29;20031;-84
2023/07/18 02:14:36;;;;;;;3.33;1.30;;;;;;;;;;4938606;29;20035;-83
2023/07/18 02:17:02;;;;;;;4.95;1.60;;;;;;;;;;4955619;28;20110;-83
2023/07/18 02:19:27;;;;;;;3.97;1.35;;;;;;;;;;4955430;29;20517;-83
2023/07/18 02:21:53;;;;;;;3.22;1.27;;;;;;;;;;4922580;29;20070;-84
2023/07/18 02:24:22;;;;;;;6.50;1.58;;;;;;;;;;4955849;29;20059;-82
2023/07/18 02:26:47;;;;;;;4.88;1.23;;;;;;;;;;4907656;28;20020;-84
2023/07/18 02:29:13;;;;;;;3.53;1.60;;;;;;;;;;4927304;29;20043;-84
2023/07/18 02:31:39;;;;;;;4.10;1.23;;;;;;;;;;4970708;28;20027;-85
2023/07/18 02:34:05;;;;;;;4.20;1.48;;;;;;;;;;4962252;28;20037;-82
2023/07/18 02:36:33;;;;;;;8.23;1.60;;;;;;;;;;4946445;28;20026;-83
2023/07/18 02:38:59;;;;;;;4.95;1.50;;;;;;;;;;4945870;28;20023;-83
2023/07/18 02:41:24;;;;;;;9.48;1.98;;;;;;;;;;4945162;29;20035;-81
2023/07/18 02:43:50;;;;;;;4.10;1.42;;;;;;;;;;4975208;29;20050;-82
2023/07/18 02:46:16;;;;;;;3.33;1.30;;;;;;;;;;4940982;29;20027;-83
2023/07/18 02:48:42;;;;;;;9.35;1.80;;;;;;;;;;4972530;28;20054;-82
2023/07/18 02:51:08;;;;;;;7.35;1.70;;;;;;;;;;4947739;29;20031;-83
2023/07/18 02:53:33;;;;;;;7.22;1.48;;;;;;;;;;4924218;29;20372;-84
2023/07/18 02:55:59;;;;;;;5.88;1.65;;;;;;;;;;4957135;29;20439;-84
2023/07/18 02:58:25;;;;;;;3.75;1.58;;;;;;;;;;4956413;28;20380;-83
2023/07/18 03:00:51;;;;;;;5.15;1.40;;;;;;;;;;4939224;29;20035;-84
2023/07/18 03:03:16;;;;;;;4.45;1.70;;;;;;;;;;4923256;29;20403;-84
2023/07/18 03:05:42;;;;;;;3.17;1.25;;;;;;;;;;4922832;29;20494;-83
2023/07/18 03:08:08;;;;;;;4.40;1.30;;;;;;;;;;4957500;28;20031;-82
2023/07/18 03:10:34;;;;;;;5.40;1.90;;;;;;;;;;4944565;29;20428;-83
2023/07/18 03:13:00;;;;;;;7.43;1.83;;;;;;;;;;4934782;29;20023;-82
2023/07/18 03:15:27;;;;;;;6.07;1.70;;;;;;;;;;4947489;29;20031;-80
2023/07/18 03:17:52;;;;;;;4.97;1.80;;;;;;;;;;4962684;28;20134;-82
2023/07/18 03:20:20;;;;;;;3.60;1.40;;;;;;;;;;4941934;29;20035;-80
2023/07/18 03:22:47;;;;;;;4.95;1.73;;;;;;;;;;4925871;29;20130;-84
2023/07/18 03:25:13;;;;;;;4.00;1.83;;;;;;;;;;4922200;29;20035;-84
2023/07/18 03:27:39;;;;;;;4.55;1.70;;;;;;;;;;4949651;23;20387;-80
2023/07/18 03:30:06;;;;;;;7.25;1.65;;;;;;;;;;4958800;28;20031;-81
2023/07/18 03:32:32;;;;;;;5.90;1.80;;;;;;;;;;4959446;29;20039;-79
2023/07/18 03:34:59;;;;;;;5.72;1.77;;;;;;;;;;4943020;29;20542;-79
2023/07/18 03:37:27;;;;;;;;;;;;;;;;;;4962442;28;20125;-80
2023/07/18 03:39:53;;;;;;;6.97;1.75;;;;;;;;;;4928471;29;19921;-79
2023/07/18 03:42:18;;;;;;;6.50;2.10;;;;;;;;;;4943936;29;20039;-80
2023/07/18 03:44:44;;;;;;;3.85;1.83;;;;;;;;;;4961843;29;20504;-81
2023/07/18 03:47:10;;;;;;;7.97;1.88;;;;;;;;;;4944852;28;20042;-79
2023/07/18 03:49:36;;;;;;;4.28;1.88;;;;;;;;;;4960308;29;20031;-81
2023/07/18 03:52:02;;;;;;;6.70;1.40;;;;;;;;;;4940424;29;20483;-79
2023/07/18 03:54:28;;;;;;;5.25;1.83;;;;;;;;;;4938381;29;20511;-80
2023/07/18 03:56:54;;;;;;;6.15;1.70;;;;;;;;;;4939356;29;20051;-80
2023/07/18 03:59:21;;;;;;;7.63;1.90;;;;;;;;;;4938962;29;20083;-81
2023/07/18 04:01:46;;;;;;;4.78;1.70;;;;;;;;;;4963957;29;20034;-80
2023/07/18 04:04:13;;;;;;;5.55;2.03;;;;;;;;;;4945315;29;20039;-80
2023/07/18 04:06:39;;;;;;;5.95;2.03;;;;;;;;;;4912891;29;20213;-81
2023/07/18 04:09:05;;;;;;;6.38;2.28;;;;;;;;;;4926904;29;20607;-80
2023/07/18 04:11:31;;;;;;;9.07;2.00;;;;;;;;;;4941169;29;20110;-81
2023/07/18 04:13:57;;;;;;;4.78;1.90;;;;;;;;;;4940463;29;20503;-82
2023/07/18 04:16:22;;;;;;;6.72;2.22;;;;;;;;;;4941580;29;20118;-83
2023/07/18 04:18:48;;;;;;;7.35;2.38;;;;;;;;;;4941719;29;20470;-82
2023/07/18 04:21:14;;;;;;;6.35;1.90;;;;;;;;;;4926581;29;20050;-82
2023/07/18 04:23:42;;;;;;;5.82;1.83;;;;;;;;;;4944981;29;20041;-83
2023/07/18 04:26:09;;;;;;;7.47;2.22;;;;;;;;;;4943584;29;20130;-82
2023/07/18 04:28:39;;;;;;;5.05;2.33;;;;;;;;;;4927578;29;20028;-82
2023/07/18 04:31:07;;;;;;;6.05;2.40;;;;;;;;;;4945824;29;20032;-80
2023/07/18 04:33:33;;;;;;;;;;;;;;;;;;4944779;29;20054;-82
2023/07/18 04:35:58;;;;;;;5.28;2.53;;;;;;;;;;4941778;29;19917;-83
2023/07/18 04:38:24;;;;;;;5.90;2.00;;;;;;;;;;4942400;29;20455;-82
2023/07/18 04:40:50;;;;;;;3.42;1.60;;;;;;;;;;4944013;29;20058;-83
2023/07/18 04:43:17;;;;;;;5.57;2.20;;;;;;;;;;4965018;29;20034;-82
2023/07/18 04:45:44;;;;;;;6.95;2.55;;;;;;;;;;4948844;29;20039;-81
2023/07/18 04:48:13;;;;;;;5.30;2.15;;;;;;;;;;4933771;29;20055;-79
2023/07/18 04:50:40;;;;;;;6.65;2.58;;;;;;;;;;4930635;29;20031;-82
2023/07/18 04:53:06;;;;;;;6.15;2.42;;;;;;;;;;4947044;29;20031;-81
2023/07/18 04:55:31;;;;;;;9.30;2.53;;;;;;;;;;4962235;29;20038;-80
2023/07/18 04:57:57;;;;;;;4.88;2.13;;;;;;;;;;4961601;28;20442;-82
2023/07/18 05:00:22;;;;;;;8.02;2.10;;;;;;;;;;4959372;29;20042;-81
2023/07/18 05:02:48;;;;;;;4.65;2.20;;;;;;;;;;4943424;29;20411;-80
2023/07/18 05:05:14;;;;;;;8.05;2.13;;;;;;;;;;4958901;29;20509;-80
2023/07/18 05:07:46;;;;;;;6.13;2.10;;;;;;;;;;4912125;29;20042;-81
2023/07/18 05:10:13;;;;;;;11.10;2.60;;;;;;;;;;4914198;29;20130;-80
2023/07/18 05:12:41;;;;;;;4.53;2.20;;;;;;;;;;4946226;29;20082;-82
2023/07/18 05:15:07;;;;;;;;;;;;;;;;;;4945406;29;20470;-81
2023/07/18 05:17:33;;;;;;;5.55;2.30;;;;;;;;;;4948328;29;19974;-80
2023/07/18 05:19:59;;;;;;;6.72;2.30;;;;;;;;;;4926059;29;20035;-81
2023/07/18 05:22:25;;;;;;;5.47;2.22;;;;;;;;;;4927843;29;20035;-82
2023/07/18 05:24:51;;;;;;;6.10;2.42;;;;;;;;;;4932236;29;20042;-82
2023/07/18 05:27:17;;;;;;;12.38;2.70;;;;;;;;;;4932866;28;20395;-81
2023/07/18 05:29:43;;;;;;;7.55;2.83;;;;;;;;;;4952693;29;20038;-82
2023/07/18 05:32:08;;;;;;;7.63;2.33;;;;;;;;;;4952828;29;20038;-82
2023/07/18 05:34:36;;;;;;;8.20;2.25;;;;;;;;;;4936300;29;20034;-81
2023/07/18 05:37:05;;;;;;;8.60;2.60;;;;;;;;;;4925375;29;20070;-78
2023/07/18 05:39:34;;;;;;;6.32;2.22;;;;;;;;;;4908330;29;20051;-77
2023/07/18 05:41:59;;;;;;;11.57;2.40;;;;;;;;;;4907531;29;20035;-79
2023/07/18 05:44:25;;;;;;;8.57;2.42;;;;;;;;;;4938748;29;20097;-78
2023/07/18 05:46:51;;;;;;;7.93;2.20;;;;;;;;;;4956381;29;20097;-79
2023/07/18 05:49:17;;;;;;;6.05;2.53;;;;;;;;;;4923057;29;20059;-80
2023/07/18 05:51:42;;;;;;;8.57;2.35;;;;;;;;;;4938691;29;20035;-81
2023/07/18 05:54:08;;;;;;;6.05;2.50;;;;;;;;;;4922772;29;20495;-80
2023/07/18 05:56:34;;;;;;;8.18;3.15;;;;;;;;;;4938829;29;20038;-78
2023/07/18 05:59:00;;;;;;;12.25;2.60;;;;;;;;;;4907139;29;20027;-78
2023/07/18 06:01:26;;;;;;;9.13;2.55;;;;;;;;;;4938720;29;20027;-79
2023/07/18 06:03:57;;;;;;;5.40;1.92;;;;;;;;;;4964375;29;20263;-82
2023/07/18 06:06:23;;;;;;;5.72;2.15;;;;;;;;;;4967327;29;20038;-82
2023/07/18 06:08:49;;;;;;;6.75;2.92;;;;;;;;;;4950373;29;20115;-81
2023/07/18 06:11:15;;;;;;;10.02;2.58;;;;;;;;;;4948544;29;20058;-81
2023/07/18 06:13:41;;;;;;;5.15;2.42;;;;;;;;;;4973934;29;20031;-80
2023/07/18 06:16:21;;;;;;;8.70;2.40;;;;;;;;;;5016183;23;20059;-82
2023/07/18 06:18:59;;;;;;;6.72;2.17;;;;;;;;;;4939365;29;20043;-80
2023/07/18 06:21:49;;;;;;;6.25;2.38;;;;;;;;;;4922528;29;20484;-81
2023/07/18 06:24:33;;;;;;;7.88;2.00;;;;;;;;;;4906717;29;20060;-81
2023/07/18 06:27:09;;;;;;;3.45;2.03;;;;;;;;;;4890551;29;20064;-83
2023/07/18 06:29:56;;;;;;;6.80;2.35;;;;;;;;;;4906726;29;20048;-79
2023/07/18 06:32:47;;;;;;;9.55;2.88;;;;;;;;;;4906278;29;20037;-81
2023/07/18 06:35:13;;;;;;;8.23;2.63;;;;;;;;;;4904827;29;20196;-82
2023/07/18 06:37:49;;;;;;;7.82;2.40;;;;;;;;;;4924345;29;20016;-81
2023/07/18 06:40:24;;;;;;;6.03;2.40;;;;;;;;;;4908075;29;20107;-81
2023/07/18 06:43:13;;;;;;;8.70;2.80;;;;;;;;;;4891975;29;20073;-81
2023/07/18 06:45:46;;;;;;;5.28;2.58;;;;;;;;;;4921374;29;20032;-83
2023/07/18 06:48:14;;;;;;;7.55;2.88;;;;;;;;;;4905140;29;20044;-83
2023/07/18 06:50:50;;;;;;;8.73;3.13;;;;;;;;;;4935594;29;20039;-82
2023/07/18 06:53:27;;;;;;;6.80;2.88;;;;;;;;;;4919982;29;20091;-81
2023/07/18 06:55:54;;;;;;;8.75;2.20;;;;;;;;;;4905539;29;20116;-81
2023/07/18 06:58:27;;;;;;;8.52;2.65;;;;;;;;;;4908087;29;20051;-81
2023/07/18 07:00:59;;;;;;;6.07;2.58;;;;;;;;;;4907701;29;20036;-81
2023/07/18 07:03:26;;;;;;;8.82;2.83;;;;;;;;;;4918796;29;20051;-81
2023/07/18 07:06:29;;;;;;;8.98;2.75;;;;;;;;;;4907326;29;20024;-83
2023/07/18 07:08:58;;;;;;;7.10;2.47;;;;;;;;;;4937617;29;20105;-82
2023/07/18 07:11:40;;;;;;;4.97;2.53;;;;;;;;;;4936767;29;20031;-81
2023/07/18 07:14:16;;;;;;;9.43;2.30;;;;;;;;;;4906408;29;20091;-82
2023/07/18 07:17:08;;;;;;;6.88;3.00;;;;;;;;;;4920345;29;20036;-82
2023/07/18 07:19:39;;;;;;;5.85;2.17;;;;;;;;;;4921091;29;20038;-81
2023/07/18 07:22:13;;;;;;;5.38;2.33;;;;;;;;;;4920933;29;20028;-80
2023/07/18 07:24:47;;;;;;;6.38;2.10;;;;;;;;;;4904259;29;20107;-80
2023/07/18 07:27:19;;;;;;;6.75;2.30;;;;;;;;;;4922294;29;20102;-82
2023/07/18 07:29:47;;;;;;;;;;;;;;;;;;4907828;29;20060;-80
2023/07/18 07:32:13;;;;;;;8.00;2.58;;;;;;;;;;4922374;29;20009;-82
2023/07/18 07:35:04;;;;;;;6.10;2.17;;;;;;;;;;4909988;29;20028;-82
2023/07/18 07:37:44;;;;;;;5.18;1.90;;;;;;;;;;4920328;29;20033;-83
2023/07/18 07:40:22;;;;;;;4.85;2.30;;;;;;;;;;4937830;29;20396;-82
2023/07/18 07:42:55;;;;;;;10.30;2.28;;;;;;;;;;4920226;29;20032;-81
2023/07/18 07:45:35;;;;;;;9.23;2.05;;;;;;;;;;4899134;29;20048;-81
2023/07/18 07:48:21;;;;;;;5.35;2.22;;;;;;;;;;4891369;29;20103;-83
2023/07/18 07:51:11;;;;;;;6.88;2.25;;;;;;;;;;4891694;29;20039;-82
2023/07/18 07:53:43;;;;;;;5.00;2.35;;;;;;;;;;4907702;29;20031;-81
2023/07/18 07:56:28;;;;;;;7.10;2.30;;;;;;;;;;4893312;29;20039;-81
2023/07/18 07:59:12;;;;;;;8.05;2.30;;;;;;;;;;4894205;29;20016;-81
2023/07/18 08:02:11;;;;;;;5.53;2.22;;;;;;;;;;4911248;29;20040;-82
2023/07/18 08:04:55;;;;;;;5.55;2.22;;;;;;;;;;4907089;29;20036;-81
2023/07/18 08:07:30;;;;;;;8.48;2.50;;;;;;;;;;4922450;29;20039;-80
2023/07/18 08:10:03;;;;;;;7.50;2.38;;;;;;;;;;4889426;29;20060;-79
2023/07/18 08:12:44;;;;;;;8.40;2.20;;;;;;;;;;4903964;29;20032;-81
2023/07/18 08:15:16;;;;;;;8.32;2.53;;;;;;;;;;4888278;29;20063;-80
2023/07/18 08:17:54;;;;;;;4.32;2.05;;;;;;;;;;4907727;29;20103;-82
2023/07/18 08:20:32;;;;;;;5.00;2.33;;;;;;;;;;4892777;29;20032;-81
2023/07/18 08:23:07;;;;;;;5.95;2.17;;;;;;;;;;4895161;29;20119;-81
2023/07/18 08:25:40;;;;;;;5.95;2.08;;;;;;;;;;4893437;29;20036;-84
2023/07/18 08:28:28;;;;;;;6.57;2.10;;;;;;;;;;4894891;29;20115;-82
2023/07/18 08:31:02;;;;;;;5.88;2.00;;;;;;;;;;4893509;29;20060;-81
2023/07/18 08:33:40;;;;;;;6.40;2.05;;;;;;;;;;4894742;29;20016;-82
2023/07/18 08:36:48;;;;;;;4.50;1.70;;;;;;;;;;4897151;29;20043;-82
2023/07/18 08:39:31;;;;;;;5.70;2.15;;;;;;;;;;4894740;29;20044;-82
2023/07/18 08:42:08;;;;;;;5.25;1.90;;;;;;;;;;4908739;29;20032;-82
2023/07/18 08:44:50;;;;;;;4.78;1.98;;;;;;;;;;4894291;29;20040;-80
2023/07/18 08:47:32;;;;;;;10.02;2.42;;;;;;;;;;4895651;29;20044;-80
2023/07/18 08:50:03;;;;;;;4.35;1.73;;;;;;;;;;4906915;29;20047;-81
2023/07/18 08:52:42;;;;;;;7.70;2.08;;;;;;;;;;4893665;29;20067;-80
2023/07/18 08:55:21;;;;;;;8.20;2.17;;;;;;;;;;4892184;29;20056;-82
2023/07/18 08:58:02;;;;;;;9.20;1.95;;;;;;;;;;4892092;29;20088;-82
2023/07/18 09:00:43;;;;;;;4.45;1.90;;;;;;;;;;4893422;29;20036;-82
2023/07/18 09:03:13;;;;;;;3.72;1.75;;;;;;;;;;4888677;29;20043;-82
2023/07/18 09:05:53;;;;;;;5.43;1.55;;;;;;;;;;4906111;29;20104;-82
2023/07/18 09:08:28;;;;;;;2.78;1.40;;;;;;;;;;4899441;29;20028;-81
2023/07/18 09:11:02;;;;;;;7.55;1.90;;;;;;;;;;4901949;29;20048;-81
2023/07/18 09:13:39;;;;;;;6.28;1.92;;;;;;;;;;4902059;29;20040;-81
2023/07/18 09:16:20;;;;;;;4.72;1.70;;;;;;;;;;4886805;29;20054;-81
2023/07/18 09:18:55;;;;;;;3.47;1.50;;;;;;;;;;4918286;29;20094;-81
2023/07/18 09:21:25;;;;;;;5.60;1.85;;;;;;;;;;4883846;29;20044;-83
2023/07/18 09:24:01;;;;;;;7.43;1.77;;;;;;;;;;4902540;29;20050;-82
2023/07/18 09:26:33;;;;;;;8.20;1.77;;;;;;;;;;4886919;29;20032;-81
2023/07/18 09:29:01;;;;;;;4.03;1.73;;;;;;;;;;4902216;23;20052;-81
2023/07/18 09:31:26;;;;;;;7.82;2.70;;;;;;;;;;4901386;29;20087;-81
2023/07/18 09:33:53;;;;;;;7.88;1.80;;;;;;;;;;4917181;29;20369;-82
2023/07/18 09:36:24;;;;;;;9.60;2.15;;;;;;;;;;4901535;29;20036;-81
2023/07/18 09:38:50;;;;;;;5.90;1.90;;;;;;;;;;4918342;29;20108;-80
2023/07/18 09:41:16;;;;;;;6.05;2.00;;;;;;;;;;4901179;29;20427;-81
2023/07/18 09:43:43;;;;;;;3.25;1.70;;;;;;;;;;4901425;29;20036;-80
2023/07/18 09:46:13;;;;;;;3.58;1.40;;;;;;;;;;4907107;29;20416;-81
2023/07/18 09:48:40;;;;;;;4.72;1.60;;;;;;;;;;4903399;29;20032;-81
2023/07/18 09:51:13;;;;;;;10.13;1.90;;;;;;;;;;4903340;29;20217;-78
2023/07/18 09:53:39;;;;;;;7.22;1.70;;;;;;;;;;4886882;29;20036;-81
2023/07/18 09:56:06;;;;;;;4.20;1.50;;;;;;;;;;4918186;29;20036;-81
2023/07/18 09:58:36;;;;;;;6.50;1.70;;;;;;;;;;4901391;29;20496;-81
2023/07/18 10:01:03;;;;;;;3.67;1.50;;;;;;;;;;4917961;29;20036;-80
2023/07/18 10:03:31;;;;;;;2.72;1.15;;;;;;;;;;4917635;29;20038;-81
2023/07/18 10:05:57;;;;;;;4.97;1.57;;;;;;;;;;4918238;29;20044;-81
2023/07/18 10:08:22;;;;;;;6.97;1.67;;;;;;;;;;4920890;29;20270;-81
2023/07/18 10:11:02;;;;;;;6.63;1.63;;;;;;;;;;4919727;29;20421;-80
2023/07/18 10:13:28;;;;;;;4.93;1.75;;;;;;;;;;4915961;29;20044;-81
2023/07/18 10:16:12;;;;;;;4.53;1.73;;;;;;;;;;4941245;29;20044;-81
2023/07/18 10:18:45;;;;;;;5.25;1.52;;;;;;;;;;4923594;29;20016;-81
2023/07/18 10:21:11;;;;;;;5.25;1.63;;;;;;;;;;4923888;29;20050;-81
2023/07/18 10:23:41;;;;;;;8.63;1.45;;;;;;;;;;4939340;29;20028;-81
2023/07/18 10:26:07;;;;;;;5.60;1.70;;;;;;;;;;4917895;29;20108;-81
2023/07/18 10:28:45;;;;;;;4.88;1.65;;;;;;;;;;4932048;29;20043;-81
2023/07/18 10:31:11;;;;;;;;;;;;;;;;;;4922850;29;20028;-81
2023/07/18 10:33:41;;;;;;;4.20;1.50;;;;;;;;;;4918762;29;19922;-79
2023/07/18 10:36:23;;;;;;;4.45;1.58;;;;;;;;;;4902160;29;20043;-82
2023/07/18 10:38:50;;;;;;;10.27;1.65;;;;;;;;;;4901102;29;20055;-81
2023/07/18 10:41:16;;;;;;;3.70;1.40;;;;;;;;;;4918996;29;20071;-80
2023/07/18 10:43:46;;;;;;;3.28;1.38;;;;;;;;;;4919016;29;20036;-81
2023/07/18 10:46:12;;;;;;;4.13;1.30;;;;;;;;;;4918165;29;20575;-80
2023/07/18 10:48:37;;;;;;;4.22;1.50;;;;;;;;;;4901150;29;20050;-80
2023/07/18 10:51:03;;;;;;;4.22;1.52;;;;;;;;;;4901510;29;20024;-79
2023/07/18 10:53:28;;;;;;;6.43;1.73;;;;;;;;;;4902124;29;20055;-81
2023/07/18 10:55:56;;;;;;;2.78;1.23;;;;;;;;;;4919153;29;20036;-81
2023/07/18 10:58:21;;;;;;;3.58;1.40;;;;;;;;;;4901511;29;20468;-82
2023/07/18 11:00:48;;;;;;;2.97;1.10;;;;;;;;;;4902399;29;20071;-81
2023/07/18 11:03:21;;;;;;;3.28;1.40;;;;;;;;;;4886875;29;20040;-80
2023/07/18 11:05:48;;;;;;;3.65;1.50;;;;;;;;;;4918745;29;20032;-81
2023/07/18 11:08:27;;;;;;;5.40;1.52;;;;;;;;;;4901516;29;20028;-80
2023/07/18 11:10:53;;;;;;;3.35;1.40;;;;;;;;;;4901325;29;20028;-82
2023/07/18 11:13:18;;;;;;;3.78;1.52;;;;;;;;;;4918060;29;20024;-81
2023/07/18 11:15:44;;;;;;;6.18;1.58;;;;;;;;;;4901355;29;20028;-82
2023/07/18 11:18:09;;;;;;;4.40;1.27;;;;;;;;;;4902109;29;20471;-80
2023/07/18 11:20:35;;;;;;;2.55;1.17;;;;;;;;;;4918692;29;20052;-81
2023/07/18 11:23:01;;;;;;;3.00;1.35;;;;;;;;;;4919637;29;20028;-80
2023/07/18 11:25:27;;;;;;;3.72;1.40;;;;;;;;;;4915982;29;20031;-81
2023/07/18 11:27:52;;;;;;;5.28;1.27;;;;;;;;;;4917083;29;20024;-80
2023/07/18 11:30:21;;;;;;;4.90;1.50;;;;;;;;;;4900140;29;20051;-82
2023/07/18 11:32:46;;;;;;;;;;;;;;;;;;4915754;29;20082;-82
2023/07/18 11:35:17;;;;;;;6.60;1.45;;;;;;;;;;4899733;29;20442;-81
2023/07/18 11:37:42;;;;;;;2.95;1.48;;;;;;;;;;4916836;29;20091;-81
2023/07/18 11:40:09;;;;;;;2.55;1.17;;;;;;;;;;4899833;29;20036;-82
2023/07/18 11:42:48;;;;;;;4.85;1.30;;;;;;;;;;4917147;29;20036;-82
2023/07/18 11:45:18;;;;;;;3.95;1.60;;;;;;;;;;4915459;29;20035;-81
2023/07/18 11:47:44;;;;;;;3.55;1.50;;;;;;;;;;4900977;29;20036;-82
2023/07/18 11:50:22;;;;;;;5.50;1.20;;;;;;;;;;4901123;29;20215;-82
2023/07/18 11:52:52;;;;;;;6.18;1.40;;;;;;;;;;4917702;29;20024;-83
2023/07/18 11:55:19;;;;;;;4.88;1.40;;;;;;;;;;4900961;29;20046;-81
2023/07/18 11:57:45;;;;;;;4.60;1.70;;;;;;;;;;4901391;29;20116;-81
2023/07/18 12:00:11;;;;;;;5.32;1.52;;;;;;;;;;4917883;29;20059;-84
2023/07/18 12:02:39;;;;;;;3.13;1.30;;;;;;;;;;4918129;29;20032;-85
2023/07/18 12:05:05;;;;;;;5.10;1.52;;;;;;;;;;4901459;29;20028;-83
2023/07/18 12:07:31;;;;;;;4.45;1.55;;;;;;;;;;4902012;29;20036;-83
2023/07/18 12:09:57;;;;;;;4.93;1.38;;;;;;;;;;4918207;29;20245;-85
2023/07/18 12:12:23;;;;;;;5.25;1.55;;;;;;;;;;4916761;29;20552;-83
2023/07/18 12:14:52;;;;;;;3.42;1.33;;;;;;;;;;4916865;29;20035;-83
2023/07/18 12:17:17;;;;;;;3.28;1.50;;;;;;;;;;4917267;29;20040;-84
2023/07/18 12:19:44;;;;;;;5.38;1.35;;;;;;;;;;4918322;29;20032;-83
2023/07/18 12:22:10;;;;;;;5.75;1.45;;;;;;;;;;4917815;29;20043;-82
2023/07/18 12:24:36;;;;;;;1.88;1.20;;;;;;;;;;4902465;29;20123;-83
2023/07/18 12:27:01;;;;;;;4.22;1.65;;;;;;;;;;4920111;29;20064;-83
2023/07/18 12:29:27;;;;;;;6.88;1.30;;;;;;;;;;4912235;29;20416;-84
2023/07/18 12:31:53;;;;;;;4.53;1.48;;;;;;;;;;4909928;29;20039;-83
2023/07/18 12:34:19;;;;;;;4.22;1.45;;;;;;;;;;4909127;29;20060;-83
2023/07/18 12:36:45;;;;;;;3.67;1.70;;;;;;;;;;4892446;29;20396;-83
2023/07/18 12:39:14;;;;;;;3.40;1.40;;;;;;;;;;4927215;29;20075;-83
2023/07/18 12:41:39;;;;;;;3.47;1.33;;;;;;;;;;4894312;29;20087;-82
2023/07/18 12:44:05;;;;;;;3.65;1.00;;;;;;;;;;4931018;29;20032;-84
2023/07/18 12:46:31;;;;;;;2.33;1.30;;;;;;;;;;4919832;29;20091;-84
2023/07/18 12:48:57;;;;;;;4.07;1.15;;;;;;;;;;4938097;29;20107;-83
2023/07/18 12:51:23;;;;;;;3.10;1.20;;;;;;;;;;4937507;29;20012;-83
2023/07/18 12:53:49;;;;;;;7.85;1.20;;;;;;;;;;4934569;29;20039;-83
2023/07/18 12:56:15;;;;;;;4.72;1.70;;;;;;;;;;4919196;29;20039;-83
2023/07/18 12:58:41;;;;;;;5.03;1.50;;;;;;;;;;4930259;29;20036;-83
2023/07/18 13:01:07;;;;;;;3.65;1.60;;;;;;;;;;4923544;29;20468;-84
2023/07/18 13:03:33;;;;;;;4.07;1.10;;;;;;;;;;4892390;29;20042;-83
2023/07/18 13:05:58;;;;;;;3.58;1.50;;;;;;;;;;4889814;29;20400;-82
2023/07/18 13:08:24;;;;;;;4.55;1.23;;;;;;;;;;4920467;29;20437;-83
2023/07/18 13:10:50;;;;;;;3.10;1.48;;;;;;;;;;4920575;29;20024;-83
2023/07/18 13:13:16;;;;;;;3.67;1.25;;;;;;;;;;4920643;29;20096;-82
2023/07/18 13:15:47;;;;;;;3.03;1.20;;;;;;;;;;4903476;29;20040;-82
2023/07/18 13:18:13;;;;;;;7.65;1.95;;;;;;;;;;4921164;29;20030;-83
2023/07/18 13:20:39;;;;;;;4.45;1.48;;;;;;;;;;4919202;29;20061;-82
2023/07/18 13:23:05;;;;;;;3.42;1.30;;;;;;;;;;4903152;29;20040;-82
2023/07/18 13:25:31;;;;;;;4.55;1.60;;;;;;;;;;4902916;29;20039;-83
2023/07/18 13:27:57;;;;;;;2.67;1.10;;;;;;;;;;4918252;29;20108;-83
2023/07/18 13:30:22;;;;;;;5.35;2.03;;;;;;;;;;4902901;29;20040;-82
2023/07/18 13:32:48;;;;;;;3.55;1.67;;;;;;;;;;4918980;29;20060;-82
2023/07/18 13:35:14;;;;;;;6.30;1.40;;;;;;;;;;4919246;29;20032;-82
2023/07/18 13:37:39;;;;;;;3.35;1.38;;;;;;;;;;4917464;29;20028;-82
2023/07/18 13:40:06;;;;;;;4.22;1.50;;;;;;;;;;4901432;29;20572;-81
2023/07/18 13:42:31;;;;;;;3.58;1.30;;;;;;;;;;4901507;29;20031;-83
2023/07/18 13:44:57;;;;;;;2.80;1.02;;;;;;;;;;4918488;29;20400;-82
2023/07/18 13:47:22;;;;;;;5.97;1.63;;;;;;;;;;4916914;29;20055;-83
2023/07/18 13:49:48;;;;;;;5.47;1.70;;;;;;;;;;4902433;29;20032;-82
2023/07/18 13:52:13;;;;;;;4.70;1.38;;;;;;;;;;4885904;29;20031;-81
2023/07/18 13:54:39;;;;;;;4.15;1.33;;;;;;;;;;4902326;29;20485;-82
2023/07/18 13:57:04;;;;;;;2.45;1.15;;;;;;;;;;4918585;29;20481;-82
2023/07/18 13:59:30;;;;;;;3.75;1.40;;;;;;;;;;4917268;29;20043;-81
2023/07/18 14:01:55;;;;;;;4.65;1.20;;;;;;;;;;4902165;29;20047;-81
2023/07/18 14:04:21;;;;;;;3.72;1.30;;;;;;;;;;4917322;29;20070;-82
2023/07/18 14:06:46;;;;;;;3.22;1.40;;;;;;;;;;4918303;29;20028;-83
2023/07/18 14:09:13;;;;;;;4.15;1.20;;;;;;;;;;4901345;29;20032;-82
2023/07/18 14:11:39;;;;;;;3.38;1.10;;;;;;;;;;4918004;29;20059;-82
2023/07/18 14:14:04;;;;;;;3.28;1.10;;;;;;;;;;4916300;29;20036;-82
2023/07/18 14:16:30;;;;;;;4.32;1.25;;;;;;;;;;4901431;29;20139;-83
2023/07/18 14:18:57;;;;;;;4.68;1.38;;;;;;;;;;4918174;29;20040;-82
2023/07/18 14:21:23;;;;;;;5.87;1.20;;;;;;;;;;4901193;29;20046;-81
2023/07/18 14:23:49;;;;;;;4.13;1.52;;;;;;;;;;4918435;29;20044;-85
2023/07/18 14:26:15;;;;;;;4.05;1.00;;;;;;;;;;4919380;29;20040;-83
2023/07/18 14:28:40;;;;;;;3.00;1.33;;;;;;;;;;4920592;29;20064;-82
2023/07/18 14:31:06;;;;;;;7.63;1.23;;;;;;;;;;4902412;29;20028;-81
2023/07/18 14:33:31;;;;;;;6.22;1.60;;;;;;;;;;4918298;29;20111;-80
2023/07/18 14:35:57;;;;;;;4.20;1.67;;;;;;;;;;4919906;29;20452;-81
2023/07/18 14:38:22;;;;;;;8.52;1.40;;;;;;;;;;4919212;29;20032;-81
2023/07/18 14:40:49;;;;;;;4.60;1.27;;;;;;;;;;4920510;29;20065;-82
2023/07/18 14:43:20;;;;;;;4.67;1.60;;;;;;;;;;4917833;29;20396;-81
2023/07/18 14:45:45;;;;;;;6.68;1.48;;;;;;;;;;4887441;29;20032;-82
2023/07/18 14:48:11;;;;;;;3.28;1.50;;;;;;;;;;4887353;29;20043;-82
2023/07/18 14:50:36;;;;;;;3.60;1.35;;;;;;;;;;4918096;29;20028;-79
2023/07/18 14:53:02;;;;;;;6.45;1.58;;;;;;;;;;4918924;29;20460;-81
2023/07/18 14:55:28;;;;;;;3.75;1.20;;;;;;;;;;4902474;29;20052;-81